createdAt,value
2022-10-05T00:01:34.740Z,9.23
2022-10-05T00:04:23.242Z,9.15
2022-10-05T00:06:59.364Z,9.09
2022-10-05T00:09:26.070Z,9.04
2022-10-05T00:11:52.546Z,8.98
2022-10-05T00:14:23.096Z,8.91
2022-10-05T00:16:50.166Z,8.86
2022-10-05T00:19:44.371Z,8.81
2022-10-05T00:22:16.316Z,8.75
2022-10-05T00:24:51.817Z,8.74
2022-10-05T00:27:24.998Z,8.81
2022-10-05T00:29:59.697Z,8.87
2022-10-05T00:32:27.015Z,8.97
2022-10-05T00:34:57.205Z,8.98
2022-10-05T00:37:23.981Z,9.00
2022-10-05T00:39:50.539Z,9.02
2022-10-05T00:42:27.567Z,9.01
2022-10-05T00:44:56.802Z,8.97
2022-10-05T00:47:41.623Z,9.05
2022-10-05T00:50:25.433Z,9.07
2022-10-05T00:53:05.714Z,9.03
2022-10-05T00:55:57.587Z,8.88
2022-10-05T00:59:12.042Z,8.61
2022-10-05T01:01:50.305Z,8.51
2022-10-05T01:04:28.562Z,8.42
2022-10-05T01:06:55.265Z,8.30
2022-10-05T01:10:03.067Z,8.20
2022-10-05T01:12:40.229Z,8.18
2022-10-05T01:15:32.026Z,8.14
2022-10-05T01:18:26.015Z,8.12
2022-10-05T01:21:09.022Z,8.04
2022-10-05T01:23:57.014Z,7.97
2022-10-05T01:27:00.623Z,7.99
2022-10-05T01:29:48.300Z,8.18
2022-10-05T01:32:26.220Z,8.24
2022-10-05T01:35:43.893Z,8.33
2022-10-05T01:38:22.831Z,8.37
2022-10-05T01:41:19.675Z,8.35
2022-10-05T01:43:58.485Z,8.33
2022-10-05T01:46:39.299Z,8.35
2022-10-05T01:49:37.022Z,8.34
2022-10-05T01:52:24.938Z,8.29
2022-10-05T01:55:19.513Z,8.25
2022-10-05T01:58:16.734Z,8.23
2022-10-05T02:01:09.752Z,8.21
2022-10-05T02:03:43.182Z,8.20
2022-10-05T02:06:34.203Z,8.22
2022-10-05T02:09:20.303Z,8.21
2022-10-05T02:11:52.463Z,8.18
2022-10-05T02:14:24.585Z,8.19
2022-10-05T02:16:57.399Z,8.27
2022-10-05T02:19:36.003Z,8.35
2022-10-05T02:22:07.282Z,8.35
2022-10-05T02:24:43.496Z,8.43
2022-10-05T02:27:15.329Z,8.43
2022-10-05T02:29:47.184Z,8.47
2022-10-05T02:32:22.694Z,8.53
2022-10-05T02:34:49.957Z,8.58
2022-10-05T02:37:46.548Z,8.55
2022-10-05T02:40:45.068Z,8.63
2022-10-05T02:43:13.620Z,8.63
2022-10-05T02:45:50.893Z,8.65
2022-10-05T02:48:46.865Z,8.67
2022-10-05T02:51:58.294Z,8.62
2022-10-05T02:54:43.447Z,8.45
2022-10-05T02:57:31.243Z,8.20
2022-10-05T03:00:15.142Z,8.06
2022-10-05T03:02:48.800Z,8.02
2022-10-05T03:05:46.060Z,7.99
2022-10-05T03:08:24.986Z,8.02
2022-10-05T03:11:41.315Z,8.00
2022-10-05T03:14:26.575Z,8.25
2022-10-05T03:17:14.416Z,8.42
2022-10-05T03:20:04.101Z,8.51
2022-10-05T03:22:53.334Z,8.53
2022-10-05T03:25:45.392Z,8.54
2022-10-05T03:28:27.689Z,8.58
2022-10-05T03:31:41.846Z,8.63
2022-10-05T03:34:18.503Z,8.68
2022-10-05T03:37:10.494Z,8.67
2022-10-05T03:39:47.205Z,8.64
2022-10-05T03:42:37.853Z,8.64
2022-10-05T03:45:08.864Z,8.63
2022-10-05T03:48:01.090Z,8.60
2022-10-05T03:50:42.490Z,8.55
2022-10-05T03:53:19.889Z,8.53
2022-10-05T03:55:53.677Z,8.52
2022-10-05T03:58:28.101Z,8.51
2022-10-05T04:01:00.862Z,8.50
2022-10-05T04:03:36.685Z,8.50
2022-10-05T04:06:24.469Z,8.52
2022-10-05T04:09:00.245Z,8.47
2022-10-05T04:11:31.312Z,8.47
2022-10-05T04:14:11.153Z,8.48
2022-10-05T04:16:45.880Z,8.49
2022-10-05T04:19:24.614Z,8.47
2022-10-05T04:22:16.276Z,8.48
2022-10-05T04:24:56.178Z,8.49
2022-10-05T04:27:29.644Z,8.47
2022-10-05T04:30:05.264Z,8.43
2022-10-05T04:32:44.134Z,8.42
2022-10-05T04:35:45.680Z,8.41
2022-10-05T04:38:39.467Z,8.41
2022-10-05T04:41:29.295Z,8.39
2022-10-05T04:44:09.655Z,8.37
2022-10-05T04:46:48.574Z,8.37
2022-10-05T04:50:11.497Z,8.38
2022-10-05T04:52:53.095Z,8.39
2022-10-05T04:55:27.188Z,8.39
2022-10-05T04:58:12.011Z,8.36
2022-10-05T05:01:08.449Z,8.36
2022-10-05T05:03:41.231Z,8.34
2022-10-05T05:06:17.351Z,8.35
2022-10-05T05:09:08.995Z,8.35
2022-10-05T05:11:59.419Z,8.34
2022-10-05T05:14:40.982Z,8.37
2022-10-05T05:17:32.858Z,8.37
2022-10-05T05:20:43.875Z,8.34
2022-10-05T05:23:19.479Z,8.27
2022-10-05T05:26:25.162Z,8.19
2022-10-05T05:28:59.816Z,8.11
2022-10-05T05:31:46.513Z,8.07
2022-10-05T05:34:58.669Z,8.14
2022-10-05T05:38:13.213Z,8.08
2022-10-05T05:40:55.732Z,8.02
2022-10-05T05:43:32.284Z,7.97
2022-10-05T05:46:51.556Z,7.95
2022-10-05T05:49:27.421Z,7.95
2022-10-05T05:52:04.548Z,7.97
2022-10-05T05:54:37.870Z,8.00
2022-10-05T05:57:34.240Z,8.05
2022-10-05T06:00:05.660Z,8.11
2022-10-05T06:03:02.563Z,8.16
2022-10-05T06:05:38.154Z,8.17
2022-10-05T06:08:18.609Z,8.24
2022-10-05T06:11:00.512Z,8.26
2022-10-05T06:13:33.851Z,8.33
2022-10-05T06:16:15.110Z,8.39
2022-10-05T06:18:45.750Z,8.50
2022-10-05T06:21:24.260Z,8.54
2022-10-05T06:23:56.682Z,8.61
2022-10-05T06:27:00.833Z,8.72
2022-10-05T06:29:44.672Z,8.81
2022-10-05T06:32:31.075Z,8.95
2022-10-05T06:35:06.934Z,9.04
2022-10-05T06:37:35.595Z,9.14
2022-10-05T06:40:09.612Z,9.29
2022-10-05T06:43:21.217Z,9.38
2022-10-05T06:46:04.134Z,9.52
2022-10-05T06:49:04.364Z,9.84
2022-10-05T06:51:38.687Z,11.09
2022-10-05T06:54:23.103Z,11.66
2022-10-05T06:57:06.659Z,12.62
2022-10-05T06:59:59.063Z,12.98
2022-10-05T07:02:32.734Z,14.34
2022-10-05T07:04:59.422Z,15.18
2022-10-05T07:07:55.601Z,15.26
2022-10-05T07:10:33.936Z,15.44
2022-10-05T07:13:06.632Z,15.25
2022-10-05T07:15:47.371Z,15.60
2022-10-05T07:18:39.880Z,15.98
2022-10-05T07:21:06.585Z,16.38
2022-10-05T07:23:46.059Z,16.24
2022-10-05T07:26:25.064Z,16.50
2022-10-05T07:29:17.271Z,16.52
2022-10-05T07:31:55.316Z,16.42
2022-10-05T07:34:32.594Z,16.85
2022-10-05T07:37:21.900Z,16.94
2022-10-05T07:40:11.266Z,17.46
2022-10-05T07:42:50.477Z,17.14
2022-10-05T07:45:38.245Z,17.31
2022-10-05T07:48:16.389Z,17.12
2022-10-05T07:50:52.079Z,18.05
2022-10-05T07:53:28.677Z,18.36
2022-10-05T07:56:03.112Z,18.41
2022-10-05T07:58:37.979Z,18.81
2022-10-05T08:01:19.936Z,18.61
2022-10-05T08:04:12.907Z,19.13
2022-10-05T08:06:58.152Z,18.85
2022-10-05T08:09:36.892Z,18.91
2022-10-05T08:12:18.511Z,19.05
2022-10-05T08:15:13.921Z,18.98
2022-10-05T08:18:28.105Z,19.16
2022-10-05T08:20:57.888Z,18.88
2022-10-05T08:23:48.435Z,19.47
2022-10-05T08:26:54.619Z,19.71
2022-10-05T08:29:34.772Z,19.99
2022-10-05T08:32:12.545Z,20.16
2022-10-05T08:35:04.813Z,20.08
2022-10-05T08:37:37.293Z,19.82
2022-10-05T08:40:19.007Z,19.88
2022-10-05T08:43:08.334Z,19.52
2022-10-05T08:46:02.749Z,19.57
2022-10-05T08:49:10.031Z,20.00
2022-10-05T08:51:54.544Z,20.03
2022-10-05T08:54:52.261Z,20.25
2022-10-05T08:57:33.694Z,19.85
2022-10-05T09:00:25.635Z,19.59
2022-10-05T09:03:16.400Z,19.69
2022-10-05T09:06:04.765Z,20.29
2022-10-05T09:09:08.453Z,19.73
2022-10-05T09:11:44.889Z,20.17
2022-10-05T09:15:01.322Z,20.26
2022-10-05T09:18:11.219Z,19.90
2022-10-05T09:21:00.696Z,19.88
2022-10-05T09:23:40.367Z,20.56
2022-10-05T09:26:34.390Z,20.92
2022-10-05T09:29:38.984Z,20.86
2022-10-05T09:32:32.507Z,20.75
2022-10-05T09:35:17.580Z,20.75
2022-10-05T09:38:04.810Z,20.88
2022-10-05T09:40:47.711Z,20.79
2022-10-05T09:43:43.626Z,20.55
2022-10-05T09:46:43.078Z,20.59
2022-10-05T09:49:37.553Z,20.31
2022-10-05T09:52:28.001Z,20.94
2022-10-05T09:55:01.708Z,20.96
2022-10-05T09:57:52.392Z,20.78
2022-10-05T10:00:55.629Z,21.03
2022-10-05T10:04:07.073Z,21.38
2022-10-05T10:06:46.667Z,21.73
2022-10-05T10:09:26.997Z,21.38
2022-10-05T10:12:22.403Z,21.10
2022-10-05T10:15:19.156Z,21.29
2022-10-05T10:18:10.851Z,21.67
2022-10-05T10:21:16.103Z,21.66
2022-10-05T10:23:51.684Z,21.28
2022-10-05T10:26:20.829Z,21.21
2022-10-05T10:29:15.293Z,21.38
2022-10-05T10:32:07.716Z,21.36
2022-10-05T10:34:43.940Z,21.69
2022-10-05T10:37:41.170Z,21.31
2022-10-05T10:40:11.658Z,21.40
2022-10-05T10:42:59.354Z,21.44
2022-10-05T10:45:32.384Z,21.64
2022-10-05T10:48:24.022Z,21.45
2022-10-05T10:51:12.575Z,21.61
2022-10-05T10:54:02.625Z,22.11
2022-10-05T10:56:41.428Z,22.44
2022-10-05T10:59:07.883Z,22.01
2022-10-05T11:02:03.283Z,22.02
2022-10-05T11:04:48.506Z,21.94
2022-10-05T11:07:52.432Z,22.14
2022-10-05T11:10:56.064Z,22.07
2022-10-05T11:13:38.553Z,21.97
2022-10-05T11:16:32.537Z,22.20
2022-10-05T11:19:14.467Z,22.20
2022-10-05T11:21:49.930Z,21.67
2022-10-05T11:24:39.062Z,21.80
2022-10-05T11:27:50.847Z,21.71
2022-10-05T11:31:07.401Z,22.23
2022-10-05T11:34:10.478Z,22.35
2022-10-05T11:37:01.672Z,22.40
2022-10-05T11:39:39.896Z,22.44
2022-10-05T11:42:08.559Z,22.42
2022-10-05T11:45:15.697Z,22.43
2022-10-05T11:48:33.165Z,22.63
2022-10-05T11:51:12.129Z,22.80
2022-10-05T11:53:55.148Z,22.95
2022-10-05T11:59:15.384Z,23.28
2022-10-05T12:02:25.239Z,23.53
2022-10-05T12:05:01.037Z,23.72
2022-10-05T12:07:52.323Z,23.66
2022-10-05T12:10:44.996Z,23.59
2022-10-05T12:13:22.362Z,23.63
2022-10-05T12:16:05.171Z,24.08
2022-10-05T12:18:31.653Z,23.89
2022-10-05T12:21:07.294Z,23.60
2022-10-05T12:23:40.098Z,23.72
2022-10-05T12:26:16.860Z,23.86
2022-10-05T12:28:49.904Z,23.69
2022-10-05T12:32:00.433Z,23.64
2022-10-05T12:34:42.213Z,24.01
2022-10-05T12:37:26.630Z,24.03
2022-10-05T12:39:58.991Z,23.81
2022-10-05T12:42:42.364Z,24.01
2022-10-05T12:45:33.130Z,24.71
2022-10-05T12:48:25.465Z,24.89
2022-10-05T12:51:07.724Z,24.68
2022-10-05T12:53:42.794Z,25.00
2022-10-05T12:56:17.913Z,25.39
2022-10-05T12:58:47.609Z,25.36
2022-10-05T13:01:36.104Z,25.32
2022-10-05T13:04:14.779Z,25.44
2022-10-05T13:07:13.948Z,25.34
2022-10-05T13:09:51.340Z,25.22
2022-10-05T13:12:44.773Z,25.14
2022-10-05T13:15:31.415Z,25.35
2022-10-05T13:18:16.864Z,25.55
2022-10-05T13:21:22.672Z,25.63
2022-10-05T13:24:04.675Z,25.37
2022-10-05T13:26:38.263Z,25.51
2022-10-05T13:29:19.119Z,25.28
2022-10-05T13:32:02.133Z,25.23
2022-10-05T13:34:41.130Z,25.32
2022-10-05T13:37:23.911Z,25.51
2022-10-05T13:39:55.776Z,25.77
